Time;durP1;ratioP1;P1;durP2;ratioP2;P2;SDS_P1;SDS_P2;PMS_P1;PMS_P2;Temp;Humidity;BMP_temperature;BMP_pressure;BME280_temperature;BME280_humidity;BME280_pressure;Samples;Min_cycle;Max_cycle;Signal;HPM_P1;HPM_P2
2022/04/20 00:01:24;;;;;;;;;;;10.70;73.40;;;;;;4990327;28;19937;-83
2022/04/20 00:03:51;;;;;;;;;;;10.70;73.50;;;;;;4985170;28;19925;-83
2022/04/20 00:06:17;;;;;;;;;;;10.70;73.50;;;;;;4977324;28;19977;-83
2022/04/20 00:08:44;;;;;;;;;;;10.70;73.60;;;;;;4992537;28;19981;-84
2022/04/20 00:11:13;;;;;;;;;;;10.60;73.50;;;;;;4983340;28;19926;-83
2022/04/20 00:13:40;;;;;;;;;;;10.60;73.60;;;;;;4975524;28;20310;-84
2022/04/20 00:16:07;;;;;;;;;;;10.60;73.60;;;;;;4980092;28;19933;-83
2022/04/20 00:18:33;;;;;;;;;;;10.60;73.70;;;;;;4978412;28;20412;-84
2022/04/20 00:21:00;;;;;;;;;;;10.50;73.60;;;;;;4973936;28;19932;-83
2022/04/20 00:23:27;;;;;;;;;;;10.50;73.60;;;;;;4976645;28;19926;-83
2022/04/20 00:25:54;;;;;;;;;;;10.50;73.70;;;;;;5000256;28;20292;-84
2022/04/20 00:28:22;;;;;;;;;;;10.40;73.70;;;;;;4969739;28;19930;-83
2022/04/20 00:30:49;;;;;;;;;;;10.40;73.80;;;;;;4967400;28;19926;-83
2022/04/20 00:33:16;;;;;;;;;;;10.40;73.80;;;;;;4975522;28;20021;-84
2022/04/20 00:35:44;;;;;;;;;;;10.30;73.70;;;;;;4982315;28;20392;-83
2022/04/20 00:38:11;;;;;;;;;;;10.30;73.80;;;;;;4981367;28;19933;-83
2022/04/20 00:40:38;;;;;;;;;;;10.30;73.90;;;;;;4973694;28;20066;-84
2022/04/20 00:43:06;;;;;;;;;;;10.30;73.90;;;;;;4978311;28;19934;-84
2022/04/20 00:45:34;;;;;;;;;;;10.20;73.90;;;;;;4990112;28;19926;-83
2022/04/20 00:48:01;;;;;;;;;;;10.20;73.90;;;;;;4990470;28;19938;-84
2022/04/20 00:50:29;;;;;;;;;;;10.20;73.90;;;;;;4977732;28;19930;-84
2022/04/20 00:52:57;;;;;;;;;;;10.20;73.80;;;;;;4996484;28;19994;-83
2022/04/20 00:55:24;;;;;;;;;;;10.10;73.80;;;;;;4990005;28;20001;-84
2022/04/20 00:57:51;;;;;;;;;;;10.10;73.90;;;;;;4981759;28;19961;-84
2022/04/20 01:00:18;;;;;;;;;;;10.10;73.90;;;;;;4990691;28;19926;-84
2022/04/20 01:02:48;;;;;;;;;;;10.00;73.80;;;;;;4978573;28;19926;-83
2022/04/20 01:05:16;;;;;;;;;;;10.00;73.90;;;;;;4994518;28;19930;-83
2022/04/20 01:08:09;;;;;;;;;;;10.00;73.90;;;;;;4964079;28;19949;-84
2022/04/20 01:10:54;;;;;;;;;;;10.00;73.90;;;;;;4975187;28;20343;-84
2022/04/20 01:13:30;;;;;;;;;;;9.90;74.90;;;;;;4976741;28;19957;-84
2022/04/20 01:16:26;;;;;;;;;;;9.90;75.00;;;;;;4968133;28;20021;-84
2022/04/20 01:19:14;;;;;;;;;;;9.90;75.00;;;;;;4972185;28;19934;-84
2022/04/20 01:22:09;;;;;;;;;;;9.80;74.90;;;;;;4963907;28;20315;-84
2022/04/20 01:24:54;;;;;;;;;;;9.80;75.00;;;;;;4981574;28;20297;-84
2022/04/20 01:27:27;;;;;;;;;;;9.80;75.10;;;;;;4974359;28;19961;-84
2022/04/20 01:30:20;;;;;;;;;;;9.80;75.10;;;;;;4990730;28;19926;-84
2022/04/20 01:33:00;;;;;;;;;;;9.70;75.10;;;;;;4973629;28;19933;-84
2022/04/20 01:35:32;;;;;;;;;;;9.70;75.10;;;;;;4996354;28;20300;-84
2022/04/20 01:38:01;;;;;;;;;;;9.70;75.10;;;;;;4973055;28;19930;-84
2022/04/20 01:40:29;;;;;;;;;;;9.70;75.20;;;;;;4989097;28;19957;-84
2022/04/20 01:42:56;;;;;;;;;;;9.60;75.10;;;;;;4975111;28;19960;-83
2022/04/20 01:45:23;;;;;;;;;;;9.60;75.10;;;;;;4973131;28;20008;-85
2022/04/20 01:48:12;;;;;;;;;;;9.60;75.10;;;;;;4956095;28;19973;-83
2022/04/20 01:53:54;;;;;;;;;;;9.50;75.10;;;;;;5053921;23;19934;-74
2022/04/20 01:56:41;;;;;;;;;;;9.50;75.10;;;;;;4982623;28;19932;-74
2022/04/20 01:59:25;;;;;;;;;;;9.50;75.10;;;;;;4976624;28;19933;-75
2022/04/20 02:04:57;;;;;;;;;;;9.40;75.10;;;;;;4994194;28;19925;-77
2022/04/20 02:07:25;;;;;;;;;;;9.40;75.20;;;;;;4970464;28;19972;-74
2022/04/20 02:09:54;;;;;;;;;;;9.30;75.10;;;;;;4985761;28;20321;-73
2022/04/20 02:12:21;;;;;;;;;;;9.30;75.10;;;;;;4970420;28;20293;-74
2022/04/20 02:15:13;;;;;;;;;;;9.30;75.10;;;;;;4968093;28;19933;-74
2022/04/20 02:17:59;;;;;;;;;;;9.30;75.20;;;;;;4971073;28;19945;-73
2022/04/20 02:20:48;;;;;;;;;;;9.20;75.10;;;;;;5064812;22;20369;-78
2022/04/20 02:23:15;;;;;;;;;;;9.20;75.10;;;;;;5015533;28;19932;-77
2022/04/20 02:25:43;;;;;;;;;;;9.20;75.20;;;;;;5021303;28;19925;-75
2022/04/20 02:28:10;;;;;;;;;;;9.20;75.20;;;;;;5016767;28;19932;-76
2022/04/20 02:30:37;;;;;;;;;;;9.10;75.10;;;;;;5006746;28;20408;-77
2022/04/20 02:33:04;;;;;;;;;;;9.10;75.20;;;;;;5008671;28;19925;-75
2022/04/20 02:35:32;;;;;;;;;;;9.10;75.30;;;;;;5013572;28;19987;-75
2022/04/20 02:38:00;;;;;;;;;;;9.10;75.40;;;;;;5007663;28;19934;-77
2022/04/20 02:40:26;;;;;;;;;;;9.00;75.40;;;;;;5011234;28;19933;-75
2022/04/20 02:42:56;;;;;;;;;;;9.00;75.40;;;;;;5017266;28;20012;-75
2022/04/20 02:45:23;;;;;;;;;;;9.00;75.40;;;;;;5014972;28;19976;-78
2022/04/20 02:47:51;;;;;;;;;;;9.00;75.40;;;;;;5009596;28;19964;-75
2022/04/20 02:50:18;;;;;;;;;;;9.00;75.40;;;;;;5021437;28;19931;-76
2022/04/20 02:52:45;;;;;;;;;;;8.90;75.40;;;;;;5013872;28;19933;-76
2022/04/20 02:55:12;;;;;;;;;;;8.90;75.40;;;;;;5016572;28;19933;-76
2022/04/20 02:57:41;;;;;;;;;;;8.90;75.50;;;;;;5008548;28;20368;-75
2022/04/20 03:00:11;;;;;;;;;;;8.90;75.50;;;;;;5090690;23;19941;-74
2022/04/20 03:02:47;;;;;;;;;;;8.80;75.40;;;;;;5079751;22;20392;-74
2022/04/20 03:12:42;;;;;;;;;;;8.80;75.50;;;;;;5031540;22;20004;-76
2022/04/20 03:15:11;;;;;;;;;;;8.70;75.40;;;;;;5022339;28;20307;-76
2022/04/20 03:17:38;;;;;;;;;;;8.70;75.50;;;;;;5007319;28;19926;-76
2022/04/20 03:20:08;;;;;;;;;;;8.70;75.40;;;;;;5017353;28;20400;-78
2022/04/20 03:22:34;;;;;;;;;;;8.70;75.40;;;;;;5008565;28;19999;-77
2022/04/20 03:25:01;;;;;;;;;;;8.60;75.40;;;;;;5009784;28;19929;-76
2022/04/20 03:27:43;;;;;;;;;;;8.60;75.50;;;;;;5010980;28;19930;-76
2022/04/20 03:30:15;;;;;;;;;;;8.60;75.40;;;;;;5000594;28;19973;-78
2022/04/20 03:32:42;;;;;;;;;;;8.60;75.50;;;;;;5009945;28;19930;-76
2022/04/20 03:35:09;;;;;;;;;;;8.50;75.50;;;;;;5016631;28;20412;-78
2022/04/20 03:37:38;;;;;;;;;;;8.60;75.60;;;;;;5013274;28;20367;-76
2022/04/20 03:40:05;;;;;;;;;;;8.50;75.60;;;;;;5015382;28;19934;-77
2022/04/20 03:42:32;;;;;;;;;;;8.50;75.60;;;;;;5008393;28;19933;-76
2022/04/20 03:44:59;;;;;;;;;;;8.50;75.60;;;;;;5010815;28;19932;-76
2022/04/20 03:47:28;;;;;;;;;;;8.50;75.60;;;;;;5011498;28;19926;-76
2022/04/20 03:49:55;;;;;;;;;;;8.40;75.60;;;;;;5007251;28;19925;-76
2022/04/20 03:52:22;;;;;;;;;;;8.40;75.50;;;;;;5019990;28;19937;-77
2022/04/20 03:54:50;;;;;;;;;;;8.40;75.70;;;;;;5010573;28;19926;-78
2022/04/20 03:57:18;;;;;;;;;;;8.40;75.60;;;;;;5009728;28;20403;-76
2022/04/20 03:59:46;;;;;;;;;;;8.30;75.50;;;;;;5013018;28;20388;-76
2022/04/20 04:02:17;;;;;;;;;;;8.30;75.60;;;;;;5012306;28;20642;-77
2022/04/20 04:04:51;;;;;;;;;;;8.30;75.70;;;;;;5015623;28;19926;-76
2022/04/20 04:07:46;;;;;;;;;;;8.30;75.70;;;;;;5012235;28;19931;-76
2022/04/20 04:10:18;;;;;;;;;;;8.30;75.70;;;;;;5017556;28;19930;-78
2022/04/20 04:12:45;;;;;;;;;;;8.20;75.60;;;;;;5015768;28;19929;-75
2022/04/20 04:15:12;;;;;;;;;;;8.20;75.70;;;;;;5013045;28;19925;-76
2022/04/20 04:17:40;;;;;;;;;;;8.20;75.70;;;;;;5010436;28;19932;-78
2022/04/20 04:20:09;;;;;;;;;;;8.20;75.80;;;;;;5014438;28;20294;-76
2022/04/20 04:22:36;;;;;;;;;;;8.10;75.80;;;;;;5007874;28;19972;-76
2022/04/20 04:25:27;;;;;;;;;;;8.20;75.80;;;;;;5013426;28;20288;-76
2022/04/20 04:27:54;;;;;;;;;;;8.10;75.70;;;;;;5002418;28;20366;-77
2022/04/20 04:30:22;;;;;;;;;;;8.10;75.90;;;;;;5012019;28;20409;-75
2022/04/20 04:33:04;;;;;;;;;;;8.10;76.00;;;;;;5012297;28;19930;-77
2022/04/20 04:35:34;;;;;;;;;;;8.00;75.90;;;;;;5010397;28;20024;-76
2022/04/20 04:38:02;;;;;;;;;;;8.00;76.00;;;;;;5015365;28;19934;-76
2022/04/20 04:40:32;;;;;;;;;;;8.00;76.00;;;;;;5008447;28;19933;-76
2022/04/20 04:43:01;;;;;;;;;;;7.90;76.20;;;;;;5012183;28;19930;-76
2022/04/20 04:48:38;;;;;;;;;;;7.90;76.10;;;;;;5003703;28;19944;-75
2022/04/20 04:51:10;;;;;;;;;;;7.90;76.30;;;;;;5001881;28;20399;-76
2022/04/20 04:53:39;;;;;;;;;;;7.90;76.40;;;;;;5015933;28;20411;-77
2022/04/20 04:56:10;;;;;;;;;;;7.80;76.30;;;;;;5008150;28;19940;-75
2022/04/20 04:58:46;;;;;;;;;;;7.80;76.40;;;;;;5010442;28;20307;-78
2022/04/20 05:01:14;;;;;;;;;;;7.80;76.50;;;;;;5016815;28;19935;-76
2022/04/20 05:03:41;;;;;;;;;;;7.80;76.50;;;;;;5007474;28;19925;-76
2022/04/20 05:06:12;;;;;;;;;;;7.80;76.60;;;;;;5013500;28;20374;-77
2022/04/20 05:08:58;;;;;;;;;;;7.80;76.70;;;;;;5011056;28;19938;-78
2022/04/20 05:11:25;;;;;;;;;;;7.70;76.70;;;;;;5007566;28;19977;-75
2022/04/20 05:13:51;;;;;;;;;;;7.70;76.90;;;;;;5023320;28;20308;-76
2022/04/20 05:16:19;;;;;;;;;;;7.70;77.10;;;;;;5004477;28;19932;-75
2022/04/20 05:18:46;;;;;;;;;;;7.70;77.10;;;;;;5023124;28;20350;-76
2022/04/20 05:21:14;;;;;;;;;;;7.70;77.20;;;;;;5010693;28;19944;-75
2022/04/20 05:23:41;;;;;;;;;;;7.70;77.10;;;;;;5005001;28;19984;-77
2022/04/20 05:26:09;;;;;;;;;;;7.60;77.20;;;;;;5017426;28;20020;-76
2022/04/20 05:28:41;;;;;;;;;;;7.60;77.30;;;;;;5010230;28;19976;-78
2022/04/20 05:31:08;;;;;;;;;;;7.60;77.10;;;;;;5011004;28;19934;-75
2022/04/20 05:33:36;;;;;;;;;;;7.60;77.30;;;;;;4999823;28;19926;-76
2022/04/20 05:36:03;;;;;;;;;;;7.60;77.30;;;;;;5013857;28;20015;-76
2022/04/20 05:44:04;;;;;;;;;;;7.50;77.50;;;;;;5005491;28;19921;-75
2022/04/20 05:46:32;;;;;;;;;;;7.50;77.60;;;;;;5014056;28;19929;-76
2022/04/20 05:49:10;;;;;;;;;;;7.50;77.60;;;;;;5007660;28;20042;-77
2022/04/20 05:51:37;;;;;;;;;;;7.50;77.70;;;;;;5004158;28;20416;-77
2022/04/20 05:54:05;;;;;;;;;;;7.50;77.80;;;;;;5012088;28;20419;-76
2022/04/20 05:56:34;;;;;;;;;;;7.50;78.00;;;;;;5017263;28;19925;-77
2022/04/20 05:59:03;;;;;;;;;;;7.50;78.00;;;;;;5011963;28;19972;-78
2022/04/20 06:01:31;;;;;;;;;;;7.50;78.20;;;;;;5003320;28;19925;-77
2022/04/20 06:04:13;;;;;;;;;;;7.40;78.20;;;;;;5012020;28;20319;-76
2022/04/20 06:06:43;;;;;;;;;;;7.50;78.70;;;;;;5017619;28;19925;-76
2022/04/20 06:09:18;;;;;;;;;;;7.40;78.30;;;;;;5016078;28;19959;-79
2022/04/20 06:11:48;;;;;;;;;;;7.40;78.50;;;;;;5012121;28;19925;-75
2022/04/20 06:14:21;;;;;;;;;;;7.30;78.40;;;;;;5012443;28;19964;-78
2022/04/20 06:17:07;;;;;;;;;;;7.20;79.40;;;;;;5016007;28;19925;-78
2022/04/20 06:19:41;;;;;;;;;;;7.20;79.80;;;;;;5005295;28;20024;-77
2022/04/20 06:22:34;;;;;;;;;;;7.10;80.30;;;;;;5009640;28;19928;-75
2022/04/20 06:25:14;;;;;;;;;;;7.20;80.50;;;;;;5028851;28;19926;-75
2022/04/20 06:28:02;;;;;;;;;;;7.10;80.80;;;;;;4997073;28;20376;-76
2022/04/20 06:30:48;;;;;;;;;;;7.20;81.00;;;;;;5018934;28;19932;-78
2022/04/20 06:33:32;;;;;;;;;;;7.10;81.20;;;;;;5010097;28;19925;-76
2022/04/20 06:36:25;;;;;;;;;;;7.10;81.40;;;;;;5012873;28;19976;-75
2022/04/20 06:44:36;;;;;;;;;;;7.20;81.80;;;;;;4986154;22;19933;-75
2022/04/20 06:47:21;;;;;;;;;;;7.20;81.90;;;;;;4998684;28;20019;-79
2022/04/20 06:50:14;;;;;;;;;;;7.20;81.90;;;;;;4964626;28;20492;-75
2022/04/20 06:58:35;;;;;;;;;;;7.20;82.30;;;;;;4972645;28;20380;-77
2022/04/20 07:01:14;;;;;;;;;;;7.20;82.40;;;;;;4954404;28;19926;-76
2022/04/20 07:04:00;;;;;;;;;;;7.20;82.50;;;;;;4970420;28;19932;-77
2022/04/20 07:06:50;;;;;;;;;;;7.20;82.70;;;;;;4972063;28;19934;-77
2022/04/20 07:09:34;;;;;;;;;;;7.30;82.80;;;;;;4970409;28;19930;-76
2022/04/20 07:12:27;;;;;;;;;;;7.30;82.90;;;;;;4974478;28;20414;-76
2022/04/20 07:14:54;;;;;;;;;;;7.30;82.90;;;;;;4976866;28;19964;-76
2022/04/20 07:17:22;;;;;;;;;;;7.30;83.10;;;;;;4960406;28;19980;-76
2022/04/20 07:19:57;;;;;;;;;;;7.30;83.20;;;;;;4982693;28;20034;-75
2022/04/20 07:23:03;;;;;;;;;;;7.30;83.40;;;;;;4929483;29;20413;-76
2022/04/20 07:25:34;;;;;;;;;;;7.30;83.30;;;;;;4925291;29;19935;-76
2022/04/20 07:28:24;;;;;;;;;;;7.30;83.30;;;;;;4953875;28;20411;-76
2022/04/20 07:31:08;;;;;;;;;;;7.30;83.30;;;;;;4980214;28;19961;-78
2022/04/20 07:33:46;;;;;;;;;;;7.30;83.60;;;;;;4967555;28;20013;-76
2022/04/20 07:36:24;;;;;;;;;;;7.30;83.50;;;;;;4977101;28;19926;-76
2022/04/20 07:38:57;;;;;;;;;;;7.30;83.50;;;;;;4974313;28;19926;-77
2022/04/20 07:41:53;;;;;;;;;;;7.30;83.60;;;;;;4932025;28;19935;-77
2022/04/20 07:44:34;;;;;;;;;;;7.30;83.40;;;;;;4954337;28;20012;-76
2022/04/20 07:47:22;;;;;;;;;;;7.30;83.40;;;;;;4979479;28;19932;-77
2022/04/20 07:50:21;;;;;;;;;;;7.30;83.30;;;;;;4950608;28;20017;-76
2022/04/20 07:52:55;;;;;;;;;;;7.30;83.20;;;;;;4977810;28;19934;-76
2022/04/20 07:55:38;;;;;;;;;;;7.30;83.10;;;;;;4955814;28;20636;-75
2022/04/20 07:58:14;;;;;;;;;;;7.30;83.10;;;;;;4966298;28;20427;-77
2022/04/20 08:01:01;;;;;;;;;;;7.30;83.10;;;;;;4967350;28;19942;-75
2022/04/20 08:03:57;;;;;;;;;;;7.30;83.10;;;;;;4968702;28;19981;-76
2022/04/20 08:07:04;;;;;;;;;;;7.30;83.10;;;;;;4877691;29;19959;-75
2022/04/20 08:09:33;;;;;;;;;;;7.30;82.90;;;;;;4875856;29;20027;-76
2022/04/20 08:12:01;;;;;;;;;;;7.20;82.70;;;;;;4906236;28;19930;-75
2022/04/20 08:14:28;;;;;;;;;;;7.20;82.60;;;;;;4957865;28;19926;-76
2022/04/20 08:17:05;;;;;;;;;;;7.20;82.70;;;;;;4970620;28;19941;-76
2022/04/20 08:19:41;;;;;;;;;;;7.20;82.70;;;;;;4974752;28;19926;-78
2022/04/20 08:22:29;;;;;;;;;;;7.20;82.60;;;;;;4970449;28;19957;-76
2022/04/20 08:24:56;;;;;;;;;;;7.20;82.60;;;;;;4979287;28;19926;-79
2022/04/20 08:27:23;;;;;;;;;;;7.20;82.60;;;;;;4979599;28;19930;-77
2022/04/20 08:29:51;;;;;;;;;;;7.20;82.60;;;;;;4973161;28;19926;-78
2022/04/20 08:32:18;;;;;;;;;;;7.30;82.70;;;;;;4977193;28;19926;-77
2022/04/20 08:34:45;;;;;;;;;;;7.30;82.80;;;;;;4974183;28;20393;-79
2022/04/20 08:37:12;;;;;;;;;;;7.20;82.70;;;;;;4965075;28;19966;-80
2022/04/20 08:39:40;;;;;;;;;;;7.20;82.80;;;;;;4973110;28;20415;-77
2022/04/20 08:42:09;;;;;;;;;;;7.30;82.80;;;;;;4973282;28;20384;-77
2022/04/20 08:44:37;;;;;;;;;;;7.30;82.70;;;;;;4977033;28;20000;-77
2022/04/20 08:47:05;;;;;;;;;;;7.30;82.80;;;;;;4976631;28;19926;-77
2022/04/20 08:49:32;;;;;;;;;;;7.30;82.60;;;;;;4975244;28;19926;-77
2022/04/20 08:54:46;;;;;;;;;;;7.30;82.30;;;;;;4968434;28;19926;-80
2022/04/20 08:57:17;;;;;;;;;;;7.30;82.20;;;;;;4973995;28;19992;-77
2022/04/20 08:59:44;;;;;;;;;;;7.30;82.20;;;;;;4971786;28;19926;-78
2022/04/20 09:02:11;;;;;;;;;;;7.30;82.40;;;;;;4968865;28;19930;-77
2022/04/20 09:04:38;;;;;;;;;;;7.30;82.30;;;;;;4977658;28;19980;-77
2022/04/20 09:07:07;;;;;;;;;;;7.30;82.20;;;;;;4970751;28;20017;-78
2022/04/20 09:09:34;;;;;;;;;;;7.40;82.30;;;;;;4976100;28;19941;-77
2022/04/20 09:12:03;;;;;;;;;;;7.40;82.10;;;;;;4975311;28;19969;-79
2022/04/20 09:14:30;;;;;;;;;;;7.40;82.10;;;;;;4975603;28;20431;-78
2022/04/20 09:16:57;;;;;;;;;;;7.40;82.20;;;;;;4973796;28;20025;-77
2022/04/20 09:19:25;;;;;;;;;;;7.40;82.30;;;;;;4971310;28;19960;-78
2022/04/20 09:21:52;;;;;;;;;;;7.40;82.40;;;;;;4984112;28;19930;-78
2022/04/20 09:24:18;;;;;;;;;;;7.40;82.50;;;;;;4964017;28;20359;-78
2022/04/20 09:26:52;;;;;;;;;;;7.40;82.40;;;;;;4973139;28;19926;-79
2022/04/20 09:29:21;;;;;;;;;;;7.40;82.20;;;;;;4981235;28;20680;-77
2022/04/20 09:31:48;;;;;;;;;;;7.40;82.90;;;;;;4973604;28;19926;-78
2022/04/20 09:34:35;;;;;;;;;;;7.40;82.30;;;;;;4969794;28;20065;-77
2022/04/20 09:37:12;;;;;;;;;;;7.50;82.30;;;;;;4960942;28;20416;-77
2022/04/20 09:39:39;;;;;;;;;;;7.50;82.10;;;;;;4971437;28;19997;-78
2022/04/20 09:42:09;;;;;;;;;;;7.50;81.90;;;;;;4976236;28;19926;-78
2022/04/20 09:44:39;;;;;;;;;;;7.50;81.80;;;;;;4972479;28;20307;-77
2022/04/20 09:49:55;;;;;;;;;;;7.50;81.50;;;;;;4970924;28;19941;-78
2022/04/20 09:52:22;;;;;;;;;;;7.50;81.60;;;;;;4971845;28;20318;-77
2022/04/20 09:54:49;;;;;;;;;;;7.50;81.60;;;;;;4971991;28;19926;-77
2022/04/20 09:57:16;;;;;;;;;;;7.50;81.60;;;;;;4975196;28;19925;-79
2022/04/20 09:59:57;;;;;;;;;;;7.50;81.50;;;;;;4978339;28;19966;-77
2022/04/20 10:02:25;;;;;;;;;;;7.60;81.20;;;;;;4968432;28;19945;-77
2022/04/20 15:12:10;;;;;;;;;;;11.10;76.90;;;;;;6122867;23;19958;-82
2022/04/20 15:40:01;;;;;;;;;;;11.50;76.50;;;;;;5285786;23;19932;-83
2022/04/20 15:42:31;;;;;;;;;;;11.50;75.10;;;;;;4983741;28;20396;-83
2022/04/20 16:07:27;;;;;;;;;;;11.80;74.40;;;;;;5642485;22;19926;-81
2022/04/20 16:21:43;;;;;;;;;;;12.00;74.20;;;;;;6065374;23;20903;-82
2022/04/20 16:24:12;;;;;;;;;;;12.10;74.20;;;;;;5015704;28;19965;-83
2022/04/20 16:26:39;;;;;;;;;;;12.10;74.00;;;;;;5011179;28;19974;-83
2022/04/20 16:29:06;;;;;;;;;;;12.20;73.70;;;;;;4998749;28;19926;-83
2022/04/20 16:31:33;;;;;;;;;;;12.10;73.00;;;;;;5003030;28;19929;-84
2022/04/20 16:34:00;;;;;;;;;;;12.20;73.10;;;;;;5016946;28;20384;-83
2022/04/20 16:36:27;;;;;;;;;;;12.20;73.00;;;;;;5019429;28;20030;-83
2022/04/20 16:38:54;;;;;;;;;;;12.20;72.60;;;;;;5024513;28;19935;-83
2022/04/20 16:44:18;;;;;;;;;;;12.30;72.10;;;;;;4948601;28;20401;-76
2022/04/20 16:46:45;;;;;;;;;;;12.30;72.10;;;;;;4955267;28;20420;-76
2022/04/20 16:49:12;;;;;;;;;;;12.30;72.10;;;;;;4957442;28;19982;-76
2022/04/20 16:51:39;;;;;;;;;;;12.40;71.50;;;;;;4938137;29;19927;-78
2022/04/20 16:54:06;;;;;;;;;;;12.40;71.80;;;;;;4954229;28;19953;-76
2022/04/20 16:56:33;;;;;;;;;;;12.40;71.50;;;;;;4956360;28;19969;-76
2022/04/20 16:59:00;;;;;;;;;;;12.40;71.90;;;;;;4951934;28;19927;-76
2022/04/20 17:01:29;;;;;;;;;;;12.50;71.80;;;;;;4936943;29;19931;-76
2022/04/20 17:03:56;;;;;;;;;;;12.50;71.80;;;;;;4939537;29;19977;-77
2022/04/20 17:06:23;;;;;;;;;;;12.50;71.60;;;;;;4932833;29;20389;-79
2022/04/20 17:08:50;;;;;;;;;;;12.50;71.60;;;;;;4942063;28;19942;-77
2022/04/20 17:11:17;;;;;;;;;;;12.60;71.90;;;;;;4949175;28;19927;-76
2022/04/20 17:13:44;;;;;;;;;;;12.60;71.50;;;;;;4940508;29;19980;-78
2022/04/20 17:16:11;;;;;;;;;;;12.60;72.00;;;;;;4939210;28;19926;-76
2022/04/20 17:18:39;;;;;;;;;;;12.60;71.70;;;;;;4939461;28;19973;-76
2022/04/20 17:26:34;;;;;;;;;;;12.70;70.90;;;;;;4937484;29;19929;-76
2022/04/20 17:29:02;;;;;;;;;;;12.70;71.20;;;;;;4935161;29;19930;-77
2022/04/20 17:31:30;;;;;;;;;;;12.70;71.60;;;;;;4938305;28;19926;-76
2022/04/20 17:33:59;;;;;;;;;;;12.70;71.40;;;;;;4938868;29;20400;-76
2022/04/20 17:36:39;;;;;;;;;;;12.70;71.00;;;;;;4948079;28;19935;-76
2022/04/20 17:39:07;;;;;;;;;;;12.70;71.50;;;;;;4953838;28;19926;-77
2022/04/20 17:41:35;;;;;;;;;;;12.80;72.00;;;;;;4933996;29;19982;-77
2022/04/20 17:44:02;;;;;;;;;;;12.80;71.80;;;;;;4941086;29;20076;-79
2022/04/20 17:46:29;;;;;;;;;;;12.80;72.30;;;;;;4954326;28;19977;-76
2022/04/20 17:48:56;;;;;;;;;;;12.80;71.90;;;;;;4955544;28;19927;-76
2022/04/20 17:51:25;;;;;;;;;;;12.80;72.70;;;;;;4940297;29;19930;-76
2022/04/20 17:53:53;;;;;;;;;;;12.80;72.50;;;;;;4933846;29;20034;-78
2022/04/20 17:56:19;;;;;;;;;;;12.80;72.50;;;;;;4938167;29;19933;-76
2022/04/20 17:58:46;;;;;;;;;;;12.80;72.30;;;;;;4935376;28;19931;-76
2022/04/20 18:01:13;;;;;;;;;;;12.80;72.30;;;;;;4939604;29;20065;-77
2022/04/20 18:03:41;;;;;;;;;;;12.80;72.50;;;;;;4941399;28;20341;-76
2022/04/20 18:06:08;;;;;;;;;;;12.80;72.60;;;;;;4949156;28;20405;-77
2022/04/20 18:08:37;;;;;;;;;;;12.80;72.60;;;;;;4933595;29;20321;-76
2022/04/20 18:11:05;;;;;;;;;;;12.80;72.40;;;;;;4930184;29;19931;-77
2022/04/20 18:13:32;;;;;;;;;;;12.80;72.60;;;;;;4937060;29;19938;-76
2022/04/20 18:15:59;;;;;;;;;;;12.80;72.50;;;;;;4938335;29;19927;-78
2022/04/20 18:18:26;;;;;;;;;;;12.80;72.40;;;;;;4931333;29;19973;-76
2022/04/20 18:20:53;;;;;;;;;;;12.80;72.90;;;;;;4951087;28;19985;-78
2022/04/20 18:23:20;;;;;;;;;;;12.80;73.30;;;;;;4935278;29;19927;-77
2022/04/20 18:25:48;;;;;;;;;;;12.80;73.00;;;;;;4934000;29;19927;-78
2022/04/20 18:28:15;;;;;;;;;;;12.70;73.10;;;;;;4933288;29;19927;-76
2022/04/20 18:30:42;;;;;;;;;;;12.70;72.80;;;;;;4952437;28;19935;-76
2022/04/20 18:33:09;;;;;;;;;;;12.70;72.20;;;;;;4941091;29;19969;-77
2022/04/20 18:35:36;;;;;;;;;;;12.70;71.70;;;;;;4937289;29;19926;-77
2022/04/20 18:38:02;;;;;;;;;;;12.70;71.30;;;;;;4936539;28;19931;-76
2022/04/20 18:40:30;;;;;;;;;;;12.70;70.70;;;;;;4937518;29;20006;-76
2022/04/20 18:42:58;;;;;;;;;;;12.60;70.20;;;;;;4938677;29;19927;-76
2022/04/20 18:45:25;;;;;;;;;;;12.60;69.80;;;;;;4942264;29;19935;-77
2022/04/20 18:47:52;;;;;;;;;;;12.60;69.50;;;;;;4938323;29;20426;-77
2022/04/20 18:50:19;;;;;;;;;;;12.60;69.40;;;;;;4957949;28;20298;-76
2022/04/20 18:58:16;;;;;;;;;;;12.50;68.50;;;;;;4942978;29;19930;-76
2022/04/20 19:00:44;;;;;;;;;;;12.50;68.30;;;;;;4938232;29;20313;-76
2022/04/20 19:03:11;;;;;;;;;;;12.50;68.10;;;;;;4937347;29;19934;-76
2022/04/20 19:05:38;;;;;;;;;;;12.50;68.40;;;;;;4940911;29;19931;-77
2022/04/20 19:08:05;;;;;;;;;;;12.40;67.80;;;;;;4919851;29;19927;-76
2022/04/20 19:10:33;;;;;;;;;;;12.40;67.90;;;;;;4934966;29;19935;-76
2022/04/20 19:13:01;;;;;;;;;;;12.40;67.60;;;;;;4943596;29;19930;-76
2022/04/20 19:15:31;;;;;;;;;;;12.30;67.50;;;;;;4938733;28;20052;-76
2022/04/20 19:18:00;;;;;;;;;;;12.30;67.70;;;;;;4938405;29;19982;-78
2022/04/20 19:20:27;;;;;;;;;;;12.30;67.40;;;;;;4954263;23;19932;-76
2022/04/20 19:22:54;;;;;;;;;;;12.30;67.50;;;;;;4980959;28;19933;-75
2022/04/20 19:30:14;;;;;;;;;;;12.20;67.30;;;;;;4977091;28;20361;-74
2022/04/20 19:32:43;;;;;;;;;;;12.10;67.10;;;;;;4970007;28;19981;-75
2022/04/20 19:35:10;;;;;;;;;;;12.10;67.00;;;;;;4973764;28;19934;-75
2022/04/20 19:37:37;;;;;;;;;;;12.10;66.90;;;;;;4965531;28;20408;-75
2022/04/20 19:40:03;;;;;;;;;;;12.10;66.70;;;;;;4975409;28;20389;-74
2022/04/20 19:42:30;;;;;;;;;;;12.00;66.70;;;;;;4968573;28;19934;-74
2022/04/20 19:44:59;;;;;;;;;;;12.00;66.70;;;;;;4974636;28;19930;-75
2022/04/20 19:47:26;;;;;;;;;;;12.00;66.60;;;;;;4960713;28;19934;-75
2022/04/20 19:49:55;;;;;;;;;;;12.00;66.90;;;;;;4969455;28;20008;-75
2022/04/20 19:52:23;;;;;;;;;;;12.00;66.60;;;;;;4978382;28;19926;-75
2022/04/20 19:54:50;;;;;;;;;;;11.90;66.60;;;;;;4959850;28;19954;-75
2022/04/20 19:57:18;;;;;;;;;;;11.90;66.70;;;;;;4974043;28;20012;-74
2022/04/20 19:59:45;;;;;;;;;;;11.90;66.60;;;;;;4955605;28;19927;-74
2022/04/20 20:02:14;;;;;;;;;;;11.90;66.90;;;;;;4966422;28;19930;-75
2022/04/20 20:04:43;;;;;;;;;;;11.80;66.90;;;;;;4977141;28;20009;-74
2022/04/20 20:07:12;;;;;;;;;;;11.80;66.90;;;;;;4976344;28;19973;-75
2022/04/20 20:09:39;;;;;;;;;;;11.80;67.00;;;;;;4973127;28;20457;-75
2022/04/20 20:12:10;;;;;;;;;;;11.80;67.10;;;;;;4971245;28;19933;-75
2022/04/20 20:14:37;;;;;;;;;;;11.70;67.20;;;;;;4955284;28;19997;-74
2022/04/20 20:17:04;;;;;;;;;;;11.70;67.40;;;;;;4973839;28;19926;-75
2022/04/20 20:19:32;;;;;;;;;;;11.70;67.50;;;;;;4979197;28;19997;-76
2022/04/20 20:21:59;;;;;;;;;;;11.70;67.50;;;;;;4978849;28;19973;-74
2022/04/20 20:30:05;;;;;;;;;;;11.60;67.60;;;;;;4969849;28;19968;-75
2022/04/20 20:32:32;;;;;;;;;;;11.60;67.70;;;;;;4960265;28;19933;-75
2022/04/20 20:34:59;;;;;;;;;;;11.60;67.70;;;;;;4972625;28;19949;-74
2022/04/20 20:37:26;;;;;;;;;;;11.60;67.70;;;;;;4979755;28;20362;-73
2022/04/20 20:39:54;;;;;;;;;;;11.50;67.70;;;;;;4974709;28;19932;-75
2022/04/20 20:42:22;;;;;;;;;;;11.50;67.80;;;;;;4974998;28;20414;-75
2022/04/20 20:44:49;;;;;;;;;;;11.50;68.30;;;;;;4957013;28;19929;-75
2022/04/20 20:47:16;;;;;;;;;;;11.50;68.00;;;;;;4965150;28;19932;-74
2022/04/20 20:52:30;;;;;;;;;;;11.40;68.20;;;;;;4970955;28;19922;-75
2022/04/20 20:54:59;;;;;;;;;;;11.40;68.30;;;;;;4975402;28;19930;-74
2022/04/20 20:57:26;;;;;;;;;;;11.40;68.50;;;;;;4980832;28;19948;-74
2022/04/20 20:59:53;;;;;;;;;;;11.40;68.50;;;;;;4958671;28;19929;-75
2022/04/20 21:02:19;;;;;;;;;;;11.30;68.60;;;;;;4967042;28;19934;-74
2022/04/20 21:04:46;;;;;;;;;;;11.30;68.80;;;;;;4971554;28;19933;-75
2022/04/20 21:07:13;;;;;;;;;;;11.30;69.00;;;;;;4969088;28;19926;-74
2022/04/20 21:09:40;;;;;;;;;;;11.30;68.90;;;;;;4977073;28;20423;-75
2022/04/20 21:12:09;;;;;;;;;;;11.20;68.80;;;;;;4971398;28;19933;-74
2022/04/20 21:14:36;;;;;;;;;;;11.20;68.90;;;;;;4983041;28;20034;-76
2022/04/20 21:17:03;;;;;;;;;;;11.20;69.70;;;;;;4965174;28;20400;-75
2022/04/20 21:19:30;;;;;;;;;;;11.20;69.00;;;;;;4975448;28;20013;-75
2022/04/20 21:21:57;;;;;;;;;;;11.10;68.90;;;;;;4967029;28;19934;-75
2022/04/20 21:24:24;;;;;;;;;;;11.10;68.80;;;;;;4959453;28;20277;-74
2022/04/20 21:26:51;;;;;;;;;;;11.10;68.60;;;;;;4969786;28;20436;-75
2022/04/20 21:29:20;;;;;;;;;;;11.10;68.60;;;;;;4954207;28;19930;-75
2022/04/20 21:31:47;;;;;;;;;;;11.00;68.60;;;;;;4977586;28;19994;-74
2022/04/20 21:34:14;;;;;;;;;;;11.00;68.40;;;;;;4970367;28;19961;-74
2022/04/20 21:36:41;;;;;;;;;;;10.90;68.30;;;;;;4976348;28;19933;-75
2022/04/20 21:39:07;;;;;;;;;;;10.90;68.20;;;;;;4960457;28;19926;-75
2022/04/20 21:41:35;;;;;;;;;;;10.90;68.20;;;;;;4970822;28;19941;-75
2022/04/20 21:44:03;;;;;;;;;;;10.90;68.90;;;;;;4972883;28;20388;-75
2022/04/20 21:46:31;;;;;;;;;;;10.80;68.40;;;;;;4980032;28;19929;-75
2022/04/20 21:48:58;;;;;;;;;;;10.80;68.40;;;;;;4974702;28;20456;-74
2022/04/20 21:51:25;;;;;;;;;;;10.80;68.30;;;;;;4973475;28;19927;-74
2022/04/20 21:53:52;;;;;;;;;;;10.80;68.60;;;;;;4968294;28;19937;-75
2022/04/20 21:56:20;;;;;;;;;;;10.70;68.40;;;;;;4973102;28;20832;-74
2022/04/20 21:58:47;;;;;;;;;;;10.70;68.60;;;;;;4953589;28;19926;-74